Time;durP1;ratioP1;P1;durP2;ratioP2;P2;SDS_P1;SDS_P2;PMS_P1;PMS_P2;Temp;Humidity;BMP_temperature;BMP_pressure;BME280_temperature;BME280_humidity;BME280_pressure;Samples;Min_cycle;Max_cycle;Signal;HPM_P1;HPM_P2
2023/09/30 03:02:06;;;;;;;5.43;3.33;;;23.00;53.40;;;;;;5122849;23;46267;-83
2023/09/30 03:04:32;;;;;;;5.25;3.15;;;23.00;53.50;;;;;;4844114;29;45595;-83
2023/09/30 03:06:58;;;;;;;5.63;3.27;;;23.00;53.50;;;;;;4832472;29;45262;-85
2023/09/30 03:09:23;;;;;;;5.38;3.20;;;23.00;53.40;;;;;;4872188;29;45211;-82
2023/09/30 03:11:49;;;;;;;6.00;3.20;;;23.00;53.40;;;;;;4890507;28;46577;-84
2023/09/30 03:14:15;;;;;;;5.18;3.05;;;23.00;53.50;;;;;;4884025;28;45452;-82
2023/09/30 03:16:42;;;;;;;4.30;2.70;;;23.00;53.40;;;;;;4874796;28;45483;-80
2023/09/30 03:19:09;;;;;;;4.72;3.00;;;23.00;53.50;;;;;;4881548;28;45549;-83
2023/09/30 03:21:35;;;;;;;5.32;3.03;;;23.00;53.50;;;;;;4896914;28;45444;-85
2023/09/30 03:24:04;;;;;;;4.63;2.75;;;23.00;53.60;;;;;;4881438;28;45103;-83
2023/09/30 03:26:30;;;;;;;5.55;2.85;;;23.00;53.50;;;;;;4876718;28;45609;-82
2023/09/30 03:28:56;;;;;;;4.97;2.88;;;23.00;53.50;;;;;;4886628;28;45314;-83
2023/09/30 03:31:22;;;;;;;4.90;2.80;;;23.00;53.50;;;;;;4854191;29;46363;-83
2023/09/30 03:33:51;;;;;;;3.97;2.70;;;23.00;53.50;;;;;;4882306;28;45450;-83
2023/09/30 03:36:18;;;;;;;5.07;3.03;;;23.00;53.50;;;;;;4877769;28;44748;-83
2023/09/30 03:38:44;;;;;;;5.53;3.10;;;23.00;53.60;;;;;;4881528;28;45551;-83
2023/09/30 03:41:13;;;;;;;4.43;2.67;;;23.00;53.50;;;;;;4869132;28;46383;-82
2023/09/30 03:43:41;;;;;;;4.28;2.65;;;23.00;53.50;;;;;;4868546;29;45424;-81
2023/09/30 03:46:11;;;;;;;4.00;2.65;;;23.00;53.50;;;;;;4878246;28;45552;-81
2023/09/30 03:48:41;;;;;;;5.63;2.80;;;23.00;53.50;;;;;;4888342;28;45112;-82
2023/09/30 03:51:13;;;;;;;3.97;2.47;;;23.00;53.50;;;;;;4880493;28;46054;-82
2023/09/30 03:53:40;;;;;;;4.03;2.45;;;23.00;53.50;;;;;;4901541;28;45488;-82
2023/09/30 03:56:07;;;;;;;4.32;2.60;;;23.00;53.50;;;;;;4866620;28;44832;-84
2023/09/30 03:58:33;;;;;;;3.80;2.40;;;23.00;53.60;;;;;;4872089;28;45338;-83
2023/09/30 04:01:00;;;;;;;3.30;2.20;;;23.00;53.50;;;;;;4878714;28;45482;-84
2023/09/30 04:03:27;;;;;;;3.92;2.50;;;23.00;53.60;;;;;;4902028;28;45395;-81
2023/09/30 04:05:53;;;;;;;4.55;2.75;;;23.00;53.50;;;;;;4883811;28;45450;-80
2023/09/30 04:08:19;;;;;;;4.03;2.33;;;23.00;53.50;;;;;;4886916;28;45292;-81
2023/09/30 04:10:45;;;;;;;4.50;2.57;;;23.00;53.50;;;;;;4868705;28;46522;-83
2023/09/30 04:13:11;;;;;;;4.00;2.40;;;23.00;53.50;;;;;;4890582;28;45353;-80
2023/09/30 04:15:37;;;;;;;3.95;2.42;;;23.00;53.50;;;;;;4866830;28;44811;-80
2023/09/30 04:18:05;;;;;;;3.88;2.38;;;23.00;53.50;;;;;;4878071;28;45653;-82
2023/09/30 04:20:31;;;;;;;4.32;2.15;;;23.00;53.50;;;;;;4896472;28;46183;-83
2023/09/30 04:22:57;;;;;;;3.38;2.00;;;23.00;53.60;;;;;;4873862;28;45529;-83
2023/09/30 04:25:26;;;;;;;3.97;2.33;;;23.00;53.50;;;;;;4883024;29;44914;-82
2023/09/30 04:27:52;;;;;;;3.83;2.47;;;22.90;53.50;;;;;;4865723;28;45467;-80
2023/09/30 04:30:18;;;;;;;3.90;2.13;;;23.00;53.50;;;;;;4868455;28;45557;-90
2023/09/30 04:32:44;;;;;;;3.50;2.33;;;23.00;53.60;;;;;;4868456;28;45486;-83
2023/09/30 04:35:10;;;;;;;3.70;2.28;;;23.00;53.50;;;;;;4899998;28;45072;-84
2023/09/30 04:37:36;;;;;;;3.50;2.10;;;23.00;53.50;;;;;;4892419;29;45154;-80
2023/09/30 04:40:07;;;;;;;4.38;2.50;;;23.00;53.50;;;;;;4899542;28;45602;-89
2023/09/30 04:42:35;;;;;;;4.22;2.33;;;23.00;53.50;;;;;;4874555;29;45337;-83
2023/09/30 04:45:07;;;;;;;3.45;2.00;;;23.00;53.50;;;;;;4903900;28;44782;-83
2023/09/30 04:47:33;;;;;;;4.10;2.33;;;22.90;53.50;;;;;;4883014;28;45382;-82
2023/09/30 04:49:59;;;;;;;2.92;1.80;;;22.90;53.50;;;;;;4902303;28;46187;-82
2023/09/30 04:52:27;;;;;;;4.35;2.10;;;22.90;53.50;;;;;;4879421;28;44801;-82
2023/09/30 04:54:53;;;;;;;3.10;1.95;;;22.90;53.50;;;;;;4889242;28;45325;-82
2023/09/30 04:57:20;;;;;;;3.97;2.10;;;23.00;53.50;;;;;;4885826;28;45555;-83
2023/09/30 04:59:46;;;;;;;3.53;2.13;;;23.00;53.50;;;;;;4875055;28;45450;-87
2023/09/30 05:02:14;;;;;;;3.17;1.83;;;22.90;53.50;;;;;;4889082;28;46243;-86
2023/09/30 05:04:44;;;;;;;4.03;2.30;;;22.90;53.50;;;;;;4904851;28;45478;-79
2023/09/30 05:07:09;;;;;;;3.35;2.05;;;23.00;53.50;;;;;;4906777;28;45551;-82
2023/09/30 05:09:36;;;;;;;3.22;1.80;;;23.00;53.50;;;;;;4889931;28;45622;-81
2023/09/30 05:12:04;;;;;;;3.10;1.90;;;23.00;53.50;;;;;;4887227;28;45005;-83
2023/09/30 05:14:30;;;;;;;3.03;1.80;;;22.90;53.50;;;;;;4907769;28;46031;-81
2023/09/30 05:16:56;;;;;;;3.50;2.00;;;22.90;53.50;;;;;;4917958;28;45459;-82
2023/09/30 05:19:22;;;;;;;3.00;1.80;;;23.00;54.10;;;;;;4878257;28;46716;-85
2023/09/30 05:21:48;;;;;;;3.43;2.10;;;22.90;54.10;;;;;;4902309;28;45590;-85
2023/09/30 05:24:14;;;;;;;3.45;2.08;;;22.90;53.50;;;;;;4875126;28;44937;-81
2023/09/30 05:26:40;;;;;;;3.70;1.83;;;22.90;53.50;;;;;;4886684;28;45478;-80
2023/09/30 05:29:05;;;;;;;2.50;1.50;;;23.00;53.50;;;;;;4910039;28;45424;-81
2023/09/30 05:31:32;;;;;;;3.00;1.80;;;23.00;53.60;;;;;;4904599;28;45012;-84
2023/09/30 05:33:57;;;;;;;3.35;1.80;;;23.00;53.50;;;;;;4906000;28;45225;-80
2023/09/30 05:36:24;;;;;;;3.23;2.00;;;22.90;53.50;;;;;;4899451;28;45145;-83
2023/09/30 05:38:50;;;;;;;3.07;1.70;;;22.90;53.50;;;;;;4919559;28;45715;-82
2023/09/30 05:41:16;;;;;;;3.28;1.85;;;22.90;53.50;;;;;;4921042;28;45601;-83
2023/09/30 05:43:43;;;;;;;3.53;2.00;;;22.90;53.50;;;;;;4903223;28;45750;-81
2023/09/30 05:46:09;;;;;;;2.83;1.70;;;22.90;53.50;;;;;;4909316;28;45174;-84
2023/09/30 05:48:35;;;;;;;2.77;1.70;;;22.90;53.50;;;;;;4892052;28;46938;-83
2023/09/30 05:51:01;;;;;;;2.78;1.75;;;23.00;53.50;;;;;;4900807;28;45534;-84
2023/09/30 05:53:28;;;;;;;2.78;1.67;;;22.90;53.50;;;;;;4892439;28;45456;-80
2023/09/30 05:55:54;;;;;;;2.30;1.63;;;22.90;53.50;;;;;;4901995;28;44991;-83
2023/09/30 05:58:20;;;;;;;3.40;1.77;;;23.00;53.50;;;;;;4902189;28;45898;-83
2023/09/30 06:00:46;;;;;;;3.05;1.55;;;23.00;53.50;;;;;;4906930;28;45080;-83
2023/09/30 06:03:11;;;;;;;2.17;1.50;;;22.90;53.50;;;;;;4891254;28;45225;-81
2023/09/30 06:05:40;;;;;;;2.73;1.70;;;22.90;53.50;;;;;;4880291;28;45674;-85
2023/09/30 06:08:09;;;;;;;2.88;1.60;;;22.90;53.40;;;;;;4897177;28;45261;-79
2023/09/30 06:10:37;;;;;;;2.42;1.60;;;23.00;53.60;;;;;;4893692;28;45380;-87
2023/09/30 06:13:05;;;;;;;2.88;1.60;;;22.90;53.50;;;;;;4899654;28;45317;-82
2023/09/30 06:15:31;;;;;;;2.17;1.42;;;22.90;53.50;;;;;;4886518;28;45248;-84
2023/09/30 06:17:57;;;;;;;2.17;1.50;;;22.90;53.50;;;;;;4902560;28;45343;-84
2023/09/30 06:20:25;;;;;;;2.33;1.60;;;22.90;53.50;;;;;;4888057;28;45252;-81
2023/09/30 06:22:53;;;;;;;2.87;1.70;;;22.90;53.50;;;;;;4914804;28;45586;-80
2023/09/30 06:25:19;;;;;;;3.58;1.95;;;23.00;53.50;;;;;;4892696;28;45494;-86
2023/09/30 06:27:45;;;;;;;2.88;1.55;;;22.90;53.50;;;;;;4858139;28;45967;-80
2023/09/30 06:30:13;;;;;;;2.63;1.70;;;22.90;53.50;;;;;;4905811;28;44688;-83
2023/09/30 06:32:40;;;;;;;2.40;1.53;;;22.90;53.50;;;;;;4893327;28;45560;-81
2023/09/30 06:35:06;;;;;;;2.20;1.40;;;22.90;53.50;;;;;;4909403;28;45282;-88
2023/09/30 06:37:33;;;;;;;2.53;1.63;;;22.90;53.60;;;;;;4907681;28;46494;-82
2023/09/30 06:39:59;;;;;;;2.53;1.50;;;22.90;53.50;;;;;;4888878;28;45152;-81
2023/09/30 06:42:25;;;;;;;2.10;1.50;;;22.90;53.50;;;;;;4903117;28;46095;-81
2023/09/30 06:44:52;;;;;;;1.87;1.40;;;22.90;53.50;;;;;;4892182;28;45358;-83
2023/09/30 06:47:20;;;;;;;2.45;1.48;;;22.90;53.50;;;;;;4903093;28;45695;-88
2023/09/30 06:49:47;;;;;;;2.83;1.53;;;22.90;53.50;;;;;;4920521;28;45765;-83
2023/09/30 06:52:13;;;;;;;3.17;1.73;;;23.00;53.60;;;;;;4872771;28;45857;-83
2023/09/30 06:54:39;;;;;;;2.35;1.58;;;22.90;53.50;;;;;;4891519;28;45418;-80
2023/09/30 06:57:04;;;;;;;2.33;1.50;;;22.90;53.50;;;;;;4893755;28;45311;-81
2023/09/30 06:59:32;;;;;;;2.60;1.60;;;22.90;53.50;;;;;;4888804;28;44625;-81
2023/09/30 07:01:58;;;;;;;2.93;1.70;;;22.90;53.50;;;;;;4880535;28;47043;-81
2023/09/30 07:04:25;;;;;;;2.25;1.50;;;23.00;53.60;;;;;;4911395;28;45197;-80
2023/09/30 07:06:50;;;;;;;2.35;1.58;;;22.90;53.50;;;;;;4876991;28;46923;-83
2023/09/30 07:09:16;;;;;;;2.50;1.60;;;22.90;53.50;;;;;;4890025;28;45216;-84
2023/09/30 07:11:42;;;;;;;2.28;1.55;;;23.00;53.60;;;;;;4866577;28;45417;-82
2023/09/30 07:14:08;;;;;;;2.60;1.50;;;22.90;53.50;;;;;;4905164;28;44784;-81
2023/09/30 07:16:34;;;;;;;1.88;1.27;;;22.90;53.50;;;;;;4911999;28;45388;-80
2023/09/30 07:19:02;;;;;;;2.43;1.50;;;22.90;53.50;;;;;;4878334;28;45433;-80
2023/09/30 07:21:28;;;;;;;2.50;1.50;;;22.90;53.50;;;;;;4912826;28;45367;-83
2023/09/30 07:23:54;;;;;;;2.40;1.45;;;22.90;53.60;;;;;;4891576;28;45485;-81
2023/09/30 07:26:27;;;;;;;2.63;1.42;;;22.90;53.50;;;;;;4877888;28;45433;-81
2023/09/30 07:28:56;;;;;;;2.63;1.50;;;22.90;53.50;;;;;;4922966;28;45164;-81
2023/09/30 07:31:23;;;;;;;2.35;1.52;;;22.90;53.50;;;;;;4898378;28;45207;-85
2023/09/30 07:33:49;;;;;;;2.50;1.50;;;22.90;53.50;;;;;;4913488;28;45449;-84
2023/09/30 07:36:15;;;;;;;2.50;1.60;;;22.90;53.50;;;;;;4877267;28;45368;-81
2023/09/30 07:38:41;;;;;;;2.08;1.50;;;23.00;53.60;;;;;;4930485;28;45278;-80
2023/09/30 07:41:10;;;;;;;2.60;1.60;;;22.90;53.50;;;;;;4922208;28;45579;-84
2023/09/30 07:43:35;;;;;;;3.03;1.45;;;22.90;53.50;;;;;;4901653;28;45619;-83
2023/09/30 07:46:06;;;;;;;1.98;1.40;;;22.90;53.50;;;;;;4883418;28;46896;-81
2023/09/30 07:48:32;;;;;;;2.78;1.55;;;22.90;53.50;;;;;;4896950;28;45169;-83
2023/09/30 07:50:58;;;;;;;2.58;1.52;;;22.90;53.60;;;;;;4893978;28;45830;-82
2023/09/30 07:53:24;;;;;;;2.63;1.45;;;22.90;53.50;;;;;;4892509;28;45396;-79
2023/09/30 07:55:51;;;;;;;2.25;1.40;;;22.90;53.50;;;;;;4896162;28;45388;-79
2023/09/30 07:58:16;;;;;;;2.45;1.67;;;23.00;53.60;;;;;;4926004;28;44776;-82
2023/09/30 08:00:42;;;;;;;2.10;1.50;;;22.90;53.60;;;;;;4886783;28;45259;-80
2023/09/30 08:03:08;;;;;;;1.90;1.30;;;22.90;53.60;;;;;;4874373;28;45291;-79
2023/09/30 08:05:33;;;;;;;2.67;1.43;;;22.90;53.60;;;;;;4916307;28;46023;-80
2023/09/30 08:08:01;;;;;;;2.17;1.43;;;22.90;53.60;;;;;;4896425;28;44827;-81
2023/09/30 08:10:29;;;;;;;2.78;1.60;;;22.90;53.60;;;;;;4909141;28;45209;-89
2023/09/30 08:12:57;;;;;;;2.10;1.40;;;22.90;53.60;;;;;;4908867;28;45998;-81
2023/09/30 08:15:23;;;;;;;2.30;1.47;;;22.90;53.60;;;;;;4923125;28;46514;-81
2023/09/30 08:17:52;;;;;;;2.15;1.38;;;22.90;53.60;;;;;;4918721;28;44875;-85
2023/09/30 08:20:18;;;;;;;2.57;1.30;;;22.90;53.60;;;;;;4893714;28;45153;-80
2023/09/30 08:22:44;;;;;;;2.17;1.35;;;22.90;53.60;;;;;;4895409;28;45463;-82
2023/09/30 08:25:10;;;;;;;2.30;1.20;;;22.90;53.60;;;;;;4862155;28;46858;-83
2023/09/30 08:27:37;;;;;;;2.38;1.40;;;22.90;53.60;;;;;;4896370;28;45500;-81
2023/09/30 08:30:05;;;;;;;2.17;1.40;;;22.90;53.60;;;;;;4902771;28;45359;-92
2023/09/30 08:32:35;;;;;;;2.08;1.30;;;22.90;53.60;;;;;;4875362;28;45574;-80
2023/09/30 08:35:04;;;;;;;1.75;1.20;;;22.90;53.60;;;;;;4872441;28;46174;-80
2023/09/30 08:37:31;;;;;;;2.10;1.40;;;22.90;53.60;;;;;;4890473;28;45356;-81
2023/09/30 08:39:56;;;;;;;2.60;1.42;;;22.90;53.60;;;;;;4882251;28;44608;-81
2023/09/30 08:42:22;;;;;;;2.53;1.58;;;22.90;53.60;;;;;;4892302;28;45222;-79
2023/09/30 08:44:48;;;;;;;2.70;1.67;;;22.90;53.60;;;;;;4907172;28;45549;-80
2023/09/30 08:47:14;;;;;;;2.40;1.50;;;22.90;53.60;;;;;;4905183;28;45179;-82
2023/09/30 08:49:40;;;;;;;2.20;1.23;;;22.90;53.60;;;;;;4878258;28;45900;-79
2023/09/30 08:52:07;;;;;;;2.20;1.50;;;22.90;53.60;;;;;;4907458;28;45289;-79
2023/09/30 08:54:32;;;;;;;2.33;1.42;;;22.90;53.60;;;;;;4892938;28;46030;-80
2023/09/30 08:56:59;;;;;;;3.25;1.77;;;22.90;53.60;;;;;;4907203;28;45227;-80
2023/09/30 08:59:25;;;;;;;2.05;1.33;;;22.90;53.60;;;;;;4914541;28;46474;-82
2023/09/30 09:01:50;;;;;;;2.35;1.20;;;22.90;53.60;;;;;;4868378;28;45071;-82
2023/09/30 09:04:16;;;;;;;2.23;1.37;;;22.90;53.60;;;;;;4886342;28;46129;-83
2023/09/30 09:06:42;;;;;;;2.80;1.30;;;22.90;53.60;;;;;;4886405;28;45213;-84
2023/09/30 09:09:16;;;;;;;4.15;1.48;;;22.90;53.60;;;;;;4924003;28;44802;-84
2023/09/30 09:11:42;;;;;;;2.22;1.50;;;22.90;53.60;;;;;;4882609;28;46343;-81
2023/09/30 09:14:08;;;;;;;2.20;1.33;;;22.90;53.60;;;;;;4893105;28;45361;-81
2023/09/30 09:16:34;;;;;;;2.10;1.40;;;22.90;54.20;;;;;;4868253;28;45623;-84
2023/09/30 09:19:00;;;;;;;2.17;1.37;;;22.90;53.60;;;;;;4872998;28;45766;-83
2023/09/30 09:21:27;;;;;;;2.15;1.40;;;22.90;53.60;;;;;;4870230;28;44759;-79
2023/09/30 09:23:54;;;;;;;2.63;1.40;;;22.90;53.60;;;;;;4903223;28;46979;-80
2023/09/30 09:26:31;;;;;;;2.43;1.20;;;22.90;53.60;;;;;;4918827;28;44972;-79
2023/09/30 09:28:58;;;;;;;2.20;1.40;;;22.90;53.60;;;;;;4875880;28;45231;-80
2023/09/30 09:31:26;;;;;;;2.13;1.38;;;22.90;53.60;;;;;;4915272;28;45390;-79
2023/09/30 09:33:53;;;;;;;2.63;1.20;;;22.90;53.60;;;;;;4886313;28;45180;-80
2023/09/30 09:36:19;;;;;;;3.27;1.63;;;22.90;53.60;;;;;;4887525;28;45336;-80
2023/09/30 09:38:53;;;;;;;2.25;1.40;;;22.90;53.60;;;;;;4885847;28;45340;-87
2023/09/30 09:41:20;;;;;;;1.58;1.10;;;22.90;53.60;;;;;;4904843;28;45254;-83
2023/09/30 09:43:48;;;;;;;2.55;1.50;;;22.90;53.60;;;;;;4879623;28;46259;-80
2023/09/30 09:46:13;;;;;;;2.03;1.33;;;22.90;53.60;;;;;;4865117;28;47479;-80
2023/09/30 09:48:39;;;;;;;2.65;1.45;;;22.90;53.60;;;;;;4918327;28;45247;-83
2023/09/30 09:51:07;;;;;;;1.92;1.10;;;22.90;53.60;;;;;;4902894;28;45198;-83
2023/09/30 09:53:36;;;;;;;2.30;1.40;;;22.90;53.60;;;;;;4921930;28;45331;-86
2023/09/30 09:56:04;;;;;;;2.75;1.50;;;22.90;53.60;;;;;;4881323;28;45315;-83
2023/09/30 09:58:33;;;;;;;2.22;1.30;;;22.90;53.60;;;;;;4889673;28;45018;-81
2023/09/30 10:01:00;;;;;;;2.78;1.50;;;22.90;53.60;;;;;;4865039;28;46416;-91
2023/09/30 10:03:26;;;;;;;2.08;1.30;;;22.90;53.60;;;;;;4863481;29;45891;-81
2023/09/30 10:05:52;;;;;;;2.67;1.33;;;22.90;53.60;;;;;;4850879;29;45659;-83
2023/09/30 10:08:18;;;;;;;1.97;1.30;;;22.90;53.60;;;;;;4865964;29;44740;-80
2023/09/30 10:10:44;;;;;;;2.50;1.40;;;22.90;53.60;;;;;;4831344;29;45707;-80
2023/09/30 10:13:10;;;;;;;2.47;1.48;;;22.90;53.60;;;;;;4857293;29;46058;-80
2023/09/30 10:15:39;;;;;;;2.42;1.20;;;22.90;53.60;;;;;;4830628;29;45213;-87
2023/09/30 10:18:10;;;;;;;1.90;1.10;;;22.90;53.70;;;;;;4837314;29;45876;-82
2023/09/30 10:20:41;;;;;;;2.77;1.30;;;22.90;53.60;;;;;;4877494;29;45021;-86
2023/09/30 10:23:32;;;;;;;3.00;1.45;;;22.90;53.60;;;;;;4877997;29;46474;-82
2023/09/30 10:26:13;;;;;;;2.20;1.38;;;22.90;53.60;;;;;;4880638;29;45283;-79
2023/09/30 10:28:47;;;;;;;2.22;1.30;;;22.90;53.60;;;;;;4881584;29;45849;-82
2023/09/30 10:31:19;;;;;;;2.22;1.40;;;22.90;53.60;;;;;;4847587;29;45450;-80
2023/09/30 10:34:06;;;;;;;2.80;1.38;;;22.90;53.60;;;;;;4879399;29;45557;-82
2023/09/30 10:36:34;;;;;;;2.22;1.30;;;22.90;53.60;;;;;;4866653;29;45285;-81
2023/09/30 10:39:00;;;;;;;1.80;1.30;;;22.90;53.60;;;;;;4852180;29;45273;-80
2023/09/30 10:41:41;;;;;;;2.90;1.30;;;22.90;53.60;;;;;;4848095;29;44912;-83
2023/09/30 10:44:22;;;;;;;1.75;1.30;;;22.90;53.60;;;;;;4868510;29;45571;-81
2023/09/30 10:46:49;;;;;;;1.92;1.23;;;22.90;53.60;;;;;;4880882;29;44827;-83
2023/09/30 10:49:23;;;;;;;2.17;1.25;;;22.90;53.60;;;;;;4837097;29;45367;-80
2023/09/30 10:51:54;;;;;;;1.83;1.40;;;22.90;53.60;;;;;;4865552;29;45361;-80
2023/09/30 10:54:27;;;;;;;2.75;1.60;;;22.90;53.60;;;;;;4866440;29;46361;-81
2023/09/30 10:56:53;;;;;;;2.13;1.30;;;22.90;53.50;;;;;;4849078;29;45162;-80
2023/09/30 10:59:19;;;;;;;1.77;1.40;;;23.00;54.20;;;;;;4852609;29;45064;-80
2023/09/30 11:01:45;;;;;;;2.60;1.40;;;22.90;53.50;;;;;;4855030;28;45223;-83
2023/09/30 11:04:12;;;;;;;3.20;1.57;;;22.90;54.10;;;;;;4887484;28;46240;-81
2023/09/30 11:06:41;;;;;;;2.55;1.40;;;22.90;53.50;;;;;;4901726;28;45441;-83
2023/09/30 11:09:13;;;;;;;2.45;1.30;;;22.90;53.50;;;;;;4891298;28;44733;-83
2023/09/30 11:11:52;;;;;;;2.00;1.40;;;22.90;53.50;;;;;;4885444;28;45228;-83
2023/09/30 11:14:18;;;;;;;2.00;1.15;;;22.90;53.50;;;;;;4871298;28;45386;-83
2023/09/30 11:16:44;;;;;;;2.78;1.50;;;22.90;53.50;;;;;;4886165;28;45202;-80
2023/09/30 11:19:11;;;;;;;2.67;1.38;;;23.00;53.50;;;;;;4888410;28;44788;-82
2023/09/30 11:21:37;;;;;;;2.03;1.30;;;22.90;53.50;;;;;;4884598;28;45237;-80
2023/09/30 11:24:03;;;;;;;2.30;1.38;;;22.90;53.50;;;;;;4889591;28;45507;-80
2023/09/30 11:26:32;;;;;;;2.10;1.30;;;22.90;53.50;;;;;;4867258;28;45341;-83
2023/09/30 11:29:06;;;;;;;2.30;1.40;;;22.90;53.50;;;;;;4905215;28;46024;-82
2023/09/30 11:31:34;;;;;;;2.80;1.43;;;23.00;53.50;;;;;;4896929;28;45569;-89
2023/09/30 11:34:04;;;;;;;2.55;1.50;;;23.00;53.50;;;;;;4871709;28;47019;-83
2023/09/30 11:36:31;;;;;;;2.33;1.40;;;23.00;53.50;;;;;;4889910;28;44656;-81
2023/09/30 11:38:56;;;;;;;2.20;1.40;;;23.00;53.50;;;;;;4874353;28;46028;-81
2023/09/30 11:41:22;;;;;;;2.23;1.33;;;23.00;53.50;;;;;;4902198;28;45896;-85
2023/09/30 11:44:09;;;;;;;2.20;1.40;;;22.90;53.50;;;;;;4872664;28;46157;-80
2023/09/30 11:46:51;;;;;;;1.98;1.20;;;23.00;53.50;;;;;;4881875;28;45441;-81
2023/09/30 11:49:28;;;;;;;1.85;1.20;;;23.00;53.50;;;;;;4904664;28;44600;-81
2023/09/30 11:51:54;;;;;;;2.70;1.30;;;23.00;53.50;;;;;;4872334;28;45315;-82
2023/09/30 11:54:21;;;;;;;2.30;1.50;;;23.00;53.50;;;;;;4873804;28;47217;-81
2023/09/30 11:56:48;;;;;;;2.90;1.50;;;23.00;53.50;;;;;;4901920;28;45607;-82
2023/09/30 11:59:14;;;;;;;2.75;1.60;;;22.90;53.40;;;;;;4902551;28;45856;-81
2023/09/30 12:01:40;;;;;;;2.45;1.50;;;23.00;53.50;;;;;;4897194;28;45475;-80
2023/09/30 12:04:06;;;;;;;1.98;1.48;;;23.00;53.40;;;;;;4901056;28;46233;-81
2023/09/30 12:06:34;;;;;;;2.13;1.33;;;22.90;53.40;;;;;;4897344;28;45627;-80
2023/09/30 12:09:00;;;;;;;1.80;1.25;;;23.00;53.40;;;;;;4884267;28;45200;-81
2023/09/30 12:11:26;;;;;;;3.33;1.50;;;23.00;53.40;;;;;;4881520;29;45846;-81
2023/09/30 12:13:52;;;;;;;2.50;1.40;;;23.00;53.40;;;;;;4883370;28;46803;-83
2023/09/30 12:16:17;;;;;;;2.25;1.50;;;23.00;53.40;;;;;;4891026;28;44989;-84
2023/09/30 12:18:45;;;;;;;1.95;1.30;;;23.00;53.40;;;;;;4887793;28;44776;-82
2023/09/30 12:21:11;;;;;;;3.03;1.40;;;23.00;53.40;;;;;;4884678;28;45237;-80
2023/09/30 12:23:37;;;;;;;2.45;1.35;;;23.00;53.40;;;;;;4900961;28;45661;-81
2023/09/30 12:26:06;;;;;;;2.67;1.50;;;23.00;53.40;;;;;;4900170;28;44856;-83
2023/09/30 12:28:35;;;;;;;1.95;1.42;;;23.00;53.40;;;;;;4872898;29;44814;-86
2023/09/30 12:31:04;;;;;;;2.20;1.30;;;23.00;53.40;;;;;;4897812;28;46082;-86
2023/09/30 12:33:53;;;;;;;2.42;1.50;;;23.00;53.30;;;;;;4901577;28;45215;-84
2023/09/30 12:36:20;;;;;;;2.97;1.50;;;23.00;53.30;;;;;;4900031;28;45318;-82
2023/09/30 12:38:46;;;;;;;2.80;1.50;;;23.00;53.30;;;;;;4904043;28;45350;-81
2023/09/30 12:41:12;;;;;;;2.55;1.50;;;23.00;53.30;;;;;;4900466;28;45529;-84
2023/09/30 12:43:38;;;;;;;2.43;1.47;;;23.00;53.30;;;;;;4901002;28;46389;-83
2023/09/30 12:46:05;;;;;;;2.30;1.05;;;23.00;53.30;;;;;;4896737;28;44716;-83
2023/09/30 12:48:31;;;;;;;2.38;1.60;;;23.00;53.30;;;;;;4899799;28;45350;-80
2023/09/30 12:50:57;;;;;;;1.90;1.40;;;23.00;53.30;;;;;;4867601;28;45502;-81
2023/09/30 12:53:22;;;;;;;2.67;1.50;;;23.10;53.30;;;;;;4868822;29;46466;-80
2023/09/30 12:55:48;;;;;;;2.63;1.45;;;23.00;53.30;;;;;;4883703;28;45830;-81
2023/09/30 12:58:15;;;;;;;3.00;1.70;;;23.00;53.30;;;;;;4885424;28;45434;-80
2023/09/30 13:00:40;;;;;;;2.15;1.50;;;23.00;53.30;;;;;;4881519;28;45600;-84
2023/09/30 13:03:07;;;;;;;3.15;1.70;;;23.00;53.30;;;;;;4877345;29;45135;-81
2023/09/30 13:05:34;;;;;;;1.80;1.33;;;23.00;53.30;;;;;;4880542;29;45092;-80
2023/09/30 13:08:00;;;;;;;1.95;1.35;;;23.00;53.30;;;;;;4880798;29;45408;-81
2023/09/30 13:10:26;;;;;;;2.97;1.75;;;23.00;53.30;;;;;;4864323;29;45614;-85
2023/09/30 13:12:53;;;;;;;2.08;1.30;;;23.00;53.30;;;;;;4883030;29;46612;-88
2023/09/30 13:15:21;;;;;;;2.22;1.48;;;23.00;53.30;;;;;;4851800;29;45470;-88
2023/09/30 13:17:47;;;;;;;3.20;1.50;;;23.00;53.30;;;;;;4862959;29;45232;-83
2023/09/30 13:20:14;;;;;;;2.08;1.38;;;23.00;53.30;;;;;;4840564;29;45708;-83
2023/09/30 13:22:40;;;;;;;2.53;1.50;;;23.00;53.30;;;;;;4867968;29;45567;-83
2023/09/30 13:25:12;;;;;;;3.45;1.40;;;23.10;53.30;;;;;;4863852;29;45174;-89
2023/09/30 13:27:39;;;;;;;2.22;1.48;;;23.00;53.20;;;;;;4850788;29;45477;-80
2023/09/30 13:30:10;;;;;;;3.10;1.58;;;23.00;53.20;;;;;;4846763;29;45412;-90
2023/09/30 13:32:35;;;;;;;2.83;1.63;;;23.00;53.20;;;;;;4880299;29;45457;-83
2023/09/30 13:35:24;;;;;;;3.53;2.03;;;23.00;53.20;;;;;;4851617;29;44633;-79
2023/09/30 13:37:51;;;;;;;2.90;1.40;;;23.10;53.20;;;;;;4881462;29;45340;-86
2023/09/30 13:40:17;;;;;;;2.58;1.65;;;23.10;53.20;;;;;;4879910;29;45841;-80
2023/09/30 13:42:42;;;;;;;3.35;1.90;;;23.10;53.20;;;;;;4884027;29;46512;-82
2023/09/30 13:45:09;;;;;;;3.20;1.73;;;23.10;53.20;;;;;;4851362;29;45759;-80
2023/09/30 13:47:35;;;;;;;3.50;1.73;;;23.10;53.20;;;;;;4835544;29;45893;-80
2023/09/30 13:50:03;;;;;;;2.65;1.80;;;23.10;53.20;;;;;;4881714;29;45587;-81
2023/09/30 13:52:29;;;;;;;2.27;1.50;;;23.10;53.20;;;;;;4866518;29;46178;-81
2023/09/30 13:54:55;;;;;;;2.80;1.77;;;23.10;53.20;;;;;;4884674;29;44819;-84
2023/09/30 13:57:21;;;;;;;2.63;1.70;;;23.10;53.20;;;;;;4863554;29;46217;-81
2023/09/30 13:59:47;;;;;;;3.47;1.77;;;23.10;53.20;;;;;;4867549;29;45594;-83
2023/09/30 14:02:13;;;;;;;3.17;1.77;;;23.10;53.20;;;;;;4838970;29;47510;-80
2023/09/30 14:04:38;;;;;;;3.50;1.80;;;23.10;53.20;;;;;;4869318;29;45234;-80
2023/09/30 14:07:07;;;;;;;2.88;1.80;;;23.10;53.70;;;;;;4864276;29;45202;-80
2023/09/30 14:09:33;;;;;;;4.05;1.80;;;23.10;53.10;;;;;;4882427;29;45579;-81
2023/09/30 14:11:59;;;;;;;2.70;1.85;;;23.10;53.10;;;;;;4881894;29;45335;-85
2023/09/30 14:14:25;;;;;;;3.15;2.08;;;23.10;53.10;;;;;;4882712;29;45652;-80
2023/09/30 14:16:51;;;;;;;3.57;2.00;;;23.10;53.20;;;;;;4863541;29;45583;-80
2023/09/30 14:19:18;;;;;;;3.70;1.88;;;23.10;53.10;;;;;;4866878;29;45180;-83
2023/09/30 14:21:45;;;;;;;3.92;2.00;;;23.10;53.10;;;;;;4882779;29;45274;-82
2023/09/30 14:24:11;;;;;;;4.13;2.10;;;23.10;53.10;;;;;;4884947;29;45147;-80
2023/09/30 14:26:37;;;;;;;5.85;2.20;;;23.10;53.10;;;;;;4865262;29;45241;-80
2023/09/30 14:29:03;;;;;;;3.92;2.05;;;23.10;53.10;;;;;;4855474;29;45165;-81
2023/09/30 14:31:29;;;;;;;3.00;1.83;;;23.10;53.10;;;;;;4849718;29;45226;-85
2023/09/30 14:33:54;;;;;;;3.67;2.30;;;23.20;53.20;;;;;;4868034;29;45474;-81
2023/09/30 14:36:22;;;;;;;3.97;2.20;;;23.10;53.10;;;;;;4862965;29;45513;-84
2023/09/30 14:38:49;;;;;;;2.83;1.95;;;23.20;53.20;;;;;;4881839;29;46001;-80
2023/09/30 14:41:15;;;;;;;3.53;2.15;;;23.10;53.10;;;;;;4880787;29;45203;-81
2023/09/30 14:43:41;;;;;;;3.38;2.15;;;23.10;53.10;;;;;;4882121;29;44695;-82
2023/09/30 14:46:08;;;;;;;3.60;2.08;;;23.10;53.10;;;;;;4871345;29;45422;-83
2023/09/30 14:48:34;;;;;;;3.20;2.20;;;23.10;53.10;;;;;;4877025;29;45439;-84
2023/09/30 14:50:59;;;;;;;3.92;2.28;;;23.10;53.10;;;;;;4846180;29;46388;-86
2023/09/30 14:53:25;;;;;;;2.90;2.00;;;23.20;53.10;;;;;;4838742;29;45377;-81
2023/09/30 14:55:51;;;;;;;3.42;2.20;;;23.10;53.10;;;;;;4867353;29;45485;-84
2023/09/30 14:58:18;;;;;;;2.97;2.20;;;23.10;53.10;;;;;;4880536;29;45449;-83
2023/09/30 15:00:44;;;;;;;3.63;2.30;;;23.20;53.10;;;;;;4862936;28;46295;-80
2023/09/30 15:03:10;;;;;;;4.35;2.63;;;23.10;53.00;;;;;;4854064;29;45184;-85
2023/09/30 15:05:37;;;;;;;4.13;2.50;;;23.20;53.10;;;;;;4880325;29;45528;-84
2023/09/30 15:08:02;;;;;;;4.43;2.45;;;23.20;53.10;;;;;;4865738;29;45699;-84
2023/09/30 15:10:29;;;;;;;4.83;2.40;;;23.10;53.00;;;;;;4848747;29;45420;-83
2023/09/30 15:12:57;;;;;;;3.15;2.15;;;23.10;53.00;;;;;;4861466;29;45616;-83
2023/09/30 15:15:23;;;;;;;4.63;2.67;;;23.20;53.10;;;;;;4859084;29;46354;-80
2023/09/30 15:17:48;;;;;;;4.15;2.53;;;23.20;53.10;;;;;;4848416;29;45145;-80
2023/09/30 15:20:14;;;;;;;5.07;2.60;;;23.10;53.00;;;;;;4879139;29;45341;-79
2023/09/30 15:22:40;;;;;;;4.30;2.50;;;23.20;53.10;;;;;;4850400;29;45160;-79
2023/09/30 15:25:07;;;;;;;4.07;2.55;;;23.20;53.00;;;;;;4878981;29;45037;-88
2023/09/30 15:27:32;;;;;;;3.67;2.50;;;23.10;53.00;;;;;;4863386;29;45363;-82
2023/09/30 15:30:02;;;;;;;4.57;2.97;;;23.20;53.00;;;;;;4880492;29;45526;-82
2023/09/30 15:32:28;;;;;;;4.13;2.50;;;23.20;53.00;;;;;;4815530;23;45330;-43
2023/09/30 15:34:54;;;;;;;4.00;2.50;;;23.10;53.00;;;;;;4848883;29;45501;-44
2023/09/30 15:37:20;;;;;;;4.43;2.90;;;23.20;53.00;;;;;;4840968;29;44802;-45
2023/09/30 15:39:46;;;;;;;3.53;2.43;;;23.20;53.60;;;;;;4827622;29;45115;-44
2023/09/30 15:42:12;;;;;;;4.72;2.65;;;23.20;53.00;;;;;;4841234;29;46052;-43
2023/09/30 15:44:38;;;;;;;3.78;2.55;;;23.10;53.00;;;;;;4847260;29;45337;-43
2023/09/30 15:47:06;;;;;;;3.30;2.30;;;23.20;53.00;;;;;;4830651;29;45800;-44
2023/09/30 15:49:32;;;;;;;3.72;2.58;;;23.10;53.00;;;;;;4831021;29;45857;-43